sensor_id;sensor_type;location;lat;lon;timestamp;temperature;humidity
67275;DHT22;55463;52.324;5.122;2023-04-25T00:01:01;6.79;93.48
67275;DHT22;55463;52.324;5.122;2023-04-25T00:03:27;6.77;93.96
67275;DHT22;55463;52.324;5.122;2023-04-25T00:05:54;6.76;93.41
67275;DHT22;55463;52.324;5.122;2023-04-25T00:08:22;6.76;93.50
67275;DHT22;55463;52.324;5.122;2023-04-25T00:10:47;6.77;93.43
67275;DHT22;55463;52.324;5.122;2023-04-25T00:13:14;6.75;93.39
67275;DHT22;55463;52.324;5.122;2023-04-25T00:15:42;6.72;92.38
67275;DHT22;55463;52.324;5.122;2023-04-25T00:18:08;6.72;93.24
67275;DHT22;55463;52.324;5.122;2023-04-25T00:20:35;6.69;92.24
67275;DHT22;55463;52.324;5.122;2023-04-25T00:23:00;6.73;91.28
67275;DHT22;55463;52.324;5.122;2023-04-25T00:25:26;6.72;91.67
67275;DHT22;55463;52.324;5.122;2023-04-25T00:27:51;6.73;91.76
67275;DHT22;55463;52.324;5.122;2023-04-25T00:30:16;6.69;91.58
67275;DHT22;55463;52.324;5.122;2023-04-25T00:32:42;6.69;91.31
67275;DHT22;55463;52.324;5.122;2023-04-25T00:35:09;6.65;89.77
67275;DHT22;55463;52.324;5.122;2023-04-25T00:37:34;6.66;91.04
67275;DHT22;55463;52.324;5.122;2023-04-25T00:40:00;6.62;90.63
67275;DHT22;55463;52.324;5.122;2023-04-25T00:42:25;6.62;91.06
67275;DHT22;55463;52.324;5.122;2023-04-25T00:44:52;6.61;90.17
67275;DHT22;55463;52.324;5.122;2023-04-25T00:47:17;6.58;90.02
67275;DHT22;55463;52.324;5.122;2023-04-25T00:49:43;6.62;90.06
67275;DHT22;55463;52.324;5.122;2023-04-25T00:52:09;6.58;90.71
67275;DHT22;55463;52.324;5.122;2023-04-25T00:54:35;6.52;90.15
67275;DHT22;55463;52.324;5.122;2023-04-25T00:57:00;6.50;91.34
67275;DHT22;55463;52.324;5.122;2023-04-25T00:59:27;6.49;90.36
67275;DHT22;55463;52.324;5.122;2023-04-25T01:01:53;6.49;89.81
67275;DHT22;55463;52.324;5.122;2023-04-25T01:04:18;6.42;90.29
67275;DHT22;55463;52.324;5.122;2023-04-25T01:06:44;6.44;90.51
67275;DHT22;55463;52.324;5.122;2023-04-25T01:09:10;6.37;90.78
67275;DHT22;55463;52.324;5.122;2023-04-25T01:11:35;6.35;91.33
67275;DHT22;55463;52.324;5.122;2023-04-25T01:14:01;6.34;91.70
67275;DHT22;55463;52.324;5.122;2023-04-25T01:16:27;6.31;90.90
67275;DHT22;55463;52.324;5.122;2023-04-25T01:18:54;6.31;91.87
67275;DHT22;55463;52.324;5.122;2023-04-25T01:21:20;6.28;91.36
67275;DHT22;55463;52.324;5.122;2023-04-25T01:23:46;6.25;91.15
67275;DHT22;55463;52.324;5.122;2023-04-25T01:26:12;6.25;91.71
67275;DHT22;55463;52.324;5.122;2023-04-25T01:28:38;6.21;91.66
67275;DHT22;55463;52.324;5.122;2023-04-25T01:31:06;6.17;92.17
67275;DHT22;55463;52.324;5.122;2023-04-25T01:33:32;6.16;91.01
67275;DHT22;55463;52.324;5.122;2023-04-25T01:35:57;6.18;91.85
67275;DHT22;55463;52.324;5.122;2023-04-25T01:38:23;6.14;92.01
67275;DHT22;55463;52.324;5.122;2023-04-25T01:40:49;6.14;92.14
67275;DHT22;55463;52.324;5.122;2023-04-25T01:43:15;6.16;91.47
67275;DHT22;55463;52.324;5.122;2023-04-25T01:45:41;6.18;91.44
67275;DHT22;55463;52.324;5.122;2023-04-25T01:48:08;6.10;91.64
67275;DHT22;55463;52.324;5.122;2023-04-25T01:50:34;6.09;91.37
67275;DHT22;55463;52.324;5.122;2023-04-25T01:53:00;6.02;92.19
67275;DHT22;55463;52.324;5.122;2023-04-25T01:55:27;5.99;91.81
67275;DHT22;55463;52.324;5.122;2023-04-25T01:57:52;5.96;91.89
67275;DHT22;55463;52.324;5.122;2023-04-25T02:00:18;5.94;91.78
67275;DHT22;55463;52.324;5.122;2023-04-25T02:02:43;5.93;91.74
67275;DHT22;55463;52.324;5.122;2023-04-25T02:05:09;5.92;92.14
67275;DHT22;55463;52.324;5.122;2023-04-25T02:07:34;5.93;92.23
67275;DHT22;55463;52.324;5.122;2023-04-25T02:09:59;5.94;92.40
67275;DHT22;55463;52.324;5.122;2023-04-25T02:12:25;5.97;92.75
67275;DHT22;55463;52.324;5.122;2023-04-25T02:14:51;5.97;92.98
67275;DHT22;55463;52.324;5.122;2023-04-25T02:17:16;5.97;92.58
67275;DHT22;55463;52.324;5.122;2023-04-25T02:19:43;5.96;93.46
67275;DHT22;55463;52.324;5.122;2023-04-25T02:22:08;5.99;92.38
67275;DHT22;55463;52.324;5.122;2023-04-25T02:24:33;5.96;92.57
67275;DHT22;55463;52.324;5.122;2023-04-25T02:27:00;6.00;92.15
67275;DHT22;55463;52.324;5.122;2023-04-25T02:29:25;5.97;92.42
67275;DHT22;55463;52.324;5.122;2023-04-25T02:31:51;5.96;91.66
67275;DHT22;55463;52.324;5.122;2023-04-25T02:34:16;5.97;91.77
67275;DHT22;55463;52.324;5.122;2023-04-25T02:36:41;5.97;91.59
67275;DHT22;55463;52.324;5.122;2023-04-25T02:39:07;5.96;90.97
67275;DHT22;55463;52.324;5.122;2023-04-25T02:41:32;5.97;90.37
67275;DHT22;55463;52.324;5.122;2023-04-25T02:43:58;5.97;89.90
67275;DHT22;55463;52.324;5.122;2023-04-25T02:46:23;6.02;90.49
67275;DHT22;55463;52.324;5.122;2023-04-25T02:48:48;6.00;91.10
67275;DHT22;55463;52.324;5.122;2023-04-25T02:51:13;5.99;91.09
67275;DHT22;55463;52.324;5.122;2023-04-25T02:53:41;6.00;91.46
67275;DHT22;55463;52.324;5.122;2023-04-25T02:56:06;6.03;90.89
67275;DHT22;55463;52.324;5.122;2023-04-25T02:58:32;6.02;90.19
67275;DHT22;55463;52.324;5.122;2023-04-25T03:00:57;6.02;90.98
67275;DHT22;55463;52.324;5.122;2023-04-25T03:03:22;6.00;90.46
67275;DHT22;55463;52.324;5.122;2023-04-25T03:05:51;5.97;90.16
67275;DHT22;55463;52.324;5.122;2023-04-25T03:08:17;5.99;90.46
67275;DHT22;55463;52.324;5.122;2023-04-25T03:10:43;5.94;90.20
67275;DHT22;55463;52.324;5.122;2023-04-25T03:13:09;5.96;90.53
67275;DHT22;55463;52.324;5.122;2023-04-25T03:15:35;5.97;90.84
67275;DHT22;55463;52.324;5.122;2023-04-25T03:18:01;5.99;90.44
67275;DHT22;55463;52.324;5.122;2023-04-25T03:20:26;5.97;90.93
67275;DHT22;55463;52.324;5.122;2023-04-25T03:22:51;5.96;90.15
67275;DHT22;55463;52.324;5.122;2023-04-25T03:25:17;5.97;90.28
67275;DHT22;55463;52.324;5.122;2023-04-25T03:27:42;5.93;90.00
67275;DHT22;55463;52.324;5.122;2023-04-25T03:30:08;5.93;89.45
67275;DHT22;55463;52.324;5.122;2023-04-25T03:32:34;5.94;88.69
67275;DHT22;55463;52.324;5.122;2023-04-25T03:34:59;5.94;89.32
67275;DHT22;55463;52.324;5.122;2023-04-25T03:37:25;5.97;89.19
67275;DHT22;55463;52.324;5.122;2023-04-25T03:39:50;5.97;89.20
67275;DHT22;55463;52.324;5.122;2023-04-25T03:42:16;5.93;90.46
67275;DHT22;55463;52.324;5.122;2023-04-25T03:44:41;5.93;89.91
67275;DHT22;55463;52.324;5.122;2023-04-25T03:47:07;5.90;90.64
67275;DHT22;55463;52.324;5.122;2023-04-25T03:49:33;5.90;91.23
67275;DHT22;55463;52.324;5.122;2023-04-25T03:51:59;5.89;90.48
67275;DHT22;55463;52.324;5.122;2023-04-25T03:54:25;5.89;90.30
67275;DHT22;55463;52.324;5.122;2023-04-25T03:56:50;5.86;90.16
67275;DHT22;55463;52.324;5.122;2023-04-25T03:59:16;5.85;89.59
67275;DHT22;55463;52.324;5.122;2023-04-25T04:01:41;5.86;90.64
67275;DHT22;55463;52.324;5.122;2023-04-25T04:04:06;5.86;89.97
67275;DHT22;55463;52.324;5.122;2023-04-25T04:06:32;5.86;89.49
67275;DHT22;55463;52.324;5.122;2023-04-25T04:08:57;5.87;89.15
67275;DHT22;55463;52.324;5.122;2023-04-25T04:11:22;5.86;89.05
67275;DHT22;55463;52.324;5.122;2023-04-25T04:13:51;5.89;89.70
67275;DHT22;55463;52.324;5.122;2023-04-25T04:16:16;5.90;88.75
67275;DHT22;55463;52.324;5.122;2023-04-25T04:18:42;5.93;89.80
67275;DHT22;55463;52.324;5.122;2023-04-25T04:21:07;5.94;90.13
67275;DHT22;55463;52.324;5.122;2023-04-25T04:23:32;5.93;89.56
67275;DHT22;55463;52.324;5.122;2023-04-25T04:25:58;5.92;90.17
67275;DHT22;55463;52.324;5.122;2023-04-25T04:28:24;5.90;90.68
67275;DHT22;55463;52.324;5.122;2023-04-25T04:30:50;5.92;90.72
67275;DHT22;55463;52.324;5.122;2023-04-25T04:33:17;5.87;89.82
67275;DHT22;55463;52.324;5.122;2023-04-25T04:35:46;5.85;89.78
67275;DHT22;55463;52.324;5.122;2023-04-25T04:38:12;5.87;90.15
67275;DHT22;55463;52.324;5.122;2023-04-25T04:40:40;5.83;89.05
67275;DHT22;55463;52.324;5.122;2023-04-25T04:43:06;5.80;88.53
67275;DHT22;55463;52.324;5.122;2023-04-25T04:45:34;5.80;88.72
67275;DHT22;55463;52.324;5.122;2023-04-25T04:47:59;5.85;88.37
67275;DHT22;55463;52.324;5.122;2023-04-25T04:50:24;5.83;87.11
67275;DHT22;55463;52.324;5.122;2023-04-25T04:52:51;5.85;88.17
67275;DHT22;55463;52.324;5.122;2023-04-25T04:55:17;5.82;87.20
67275;DHT22;55463;52.324;5.122;2023-04-25T04:57:42;5.83;87.74
67275;DHT22;55463;52.324;5.122;2023-04-25T05:00:08;5.83;88.19
67275;DHT22;55463;52.324;5.122;2023-04-25T05:02:37;5.83;88.52
67275;DHT22;55463;52.324;5.122;2023-04-25T05:05:04;5.82;88.66
67275;DHT22;55463;52.324;5.122;2023-04-25T05:07:30;5.85;88.76
67275;DHT22;55463;52.324;5.122;2023-04-25T05:09:55;5.86;89.50
67275;DHT22;55463;52.324;5.122;2023-04-25T05:12:21;5.89;89.72
67275;DHT22;55463;52.324;5.122;2023-04-25T05:14:46;5.90;89.30
67275;DHT22;55463;52.324;5.122;2023-04-25T05:17:12;5.93;88.85
67275;DHT22;55463;52.324;5.122;2023-04-25T05:19:39;5.99;89.39
67275;DHT22;55463;52.324;5.122;2023-04-25T05:22:04;6.03;89.79
67275;DHT22;55463;52.324;5.122;2023-04-25T05:24:30;6.04;89.68
67275;DHT22;55463;52.324;5.122;2023-04-25T05:26:56;6.03;89.80
67275;DHT22;55463;52.324;5.122;2023-04-25T05:29:21;6.00;89.77
67275;DHT22;55463;52.324;5.122;2023-04-25T05:31:46;6.02;90.15
67275;DHT22;55463;52.324;5.122;2023-04-25T05:34:13;6.03;90.52
67275;DHT22;55463;52.324;5.122;2023-04-25T05:36:38;6.02;90.25
67275;DHT22;55463;52.324;5.122;2023-04-25T05:39:04;6.03;90.40
67275;DHT22;55463;52.324;5.122;2023-04-25T05:41:29;6.11;90.13
67275;DHT22;55463;52.324;5.122;2023-04-25T05:43:55;6.20;89.81
67275;DHT22;55463;52.324;5.122;2023-04-25T05:46:20;6.22;90.55
67275;DHT22;55463;52.324;5.122;2023-04-25T05:48:45;6.22;89.69
67275;DHT22;55463;52.324;5.122;2023-04-25T05:51:11;6.16;87.73
67275;DHT22;55463;52.324;5.122;2023-04-25T05:53:36;6.16;88.27
67275;DHT22;55463;52.324;5.122;2023-04-25T05:56:02;6.09;88.05
67275;DHT22;55463;52.324;5.122;2023-04-25T05:58:27;6.10;87.87
67275;DHT22;55463;52.324;5.122;2023-04-25T06:00:54;6.10;89.08
67275;DHT22;55463;52.324;5.122;2023-04-25T06:03:19;6.10;88.92
67275;DHT22;55463;52.324;5.122;2023-04-25T06:05:45;6.10;88.96
67275;DHT22;55463;52.324;5.122;2023-04-25T06:08:10;6.11;88.97
67275;DHT22;55463;52.324;5.122;2023-04-25T06:10:36;6.16;89.37
67275;DHT22;55463;52.324;5.122;2023-04-25T06:13:02;6.18;89.07
67275;DHT22;55463;52.324;5.122;2023-04-25T06:15:27;6.28;89.79
67275;DHT22;55463;52.324;5.122;2023-04-25T06:17:53;6.39;89.65
67275;DHT22;55463;52.324;5.122;2023-04-25T06:20:18;6.61;89.88
67275;DHT22;55463;52.324;5.122;2023-04-25T06:22:48;6.77;88.91
67275;DHT22;55463;52.324;5.122;2023-04-25T06:25:13;6.92;89.37
67275;DHT22;55463;52.324;5.122;2023-04-25T06:27:39;7.03;89.88
67275;DHT22;55463;52.324;5.122;2023-04-25T06:30:05;7.13;89.82
67275;DHT22;55463;52.324;5.122;2023-04-25T06:32:30;7.14;88.23
67275;DHT22;55463;52.324;5.122;2023-04-25T06:34:56;7.18;88.19
67275;DHT22;55463;52.324;5.122;2023-04-25T06:37:21;7.25;88.46
67275;DHT22;55463;52.324;5.122;2023-04-25T06:39:46;7.38;88.09
67275;DHT22;55463;52.324;5.122;2023-04-25T06:42:15;7.62;88.92
67275;DHT22;55463;52.324;5.122;2023-04-25T06:44:40;7.86;88.43
67275;DHT22;55463;52.324;5.122;2023-04-25T06:47:05;7.84;84.97
67275;DHT22;55463;52.324;5.122;2023-04-25T06:49:31;7.86;85.34
67275;DHT22;55463;52.324;5.122;2023-04-25T06:51:56;7.93;86.83
67275;DHT22;55463;52.324;5.122;2023-04-25T06:54:21;7.97;86.23
67275;DHT22;55463;52.324;5.122;2023-04-25T06:56:47;7.95;85.05
67275;DHT22;55463;52.324;5.122;2023-04-25T06:59:12;8.03;84.84
67275;DHT22;55463;52.324;5.122;2023-04-25T07:01:38;8.17;86.56
67275;DHT22;55463;52.324;5.122;2023-04-25T07:04:06;8.10;83.83
67275;DHT22;55463;52.324;5.122;2023-04-25T07:06:32;8.17;84.57
67275;DHT22;55463;52.324;5.122;2023-04-25T07:08:57;8.20;84.06
67275;DHT22;55463;52.324;5.122;2023-04-25T07:11:23;8.29;85.33
67275;DHT22;55463;52.324;5.122;2023-04-25T07:13:48;8.49;85.65
67275;DHT22;55463;52.324;5.122;2023-04-25T07:16:13;8.72;83.15
67275;DHT22;55463;52.324;5.122;2023-04-25T07:18:42;9.17;83.45
67275;DHT22;55463;52.324;5.122;2023-04-25T07:21:07;9.73;82.75
67275;DHT22;55463;52.324;5.122;2023-04-25T07:23:33;10.77;84.81
67275;DHT22;55463;52.324;5.122;2023-04-25T07:25:58;11.17;76.95
67275;DHT22;55463;52.324;5.122;2023-04-25T07:28:23;11.73;78.87
67275;DHT22;55463;52.324;5.122;2023-04-25T07:30:49;12.26;76.21
67275;DHT22;55463;52.324;5.122;2023-04-25T07:33:14;12.10;72.32
67275;DHT22;55463;52.324;5.122;2023-04-25T07:35:46;10.99;73.37
67275;DHT22;55463;52.324;5.122;2023-04-25T07:38:11;10.21;75.86
67275;DHT22;55463;52.324;5.122;2023-04-25T07:40:36;9.29;77.37
67275;DHT22;55463;52.324;5.122;2023-04-25T07:43:02;9.24;79.74
67275;DHT22;55463;52.324;5.122;2023-04-25T07:45:27;9.11;81.43
67275;DHT22;55463;52.324;5.122;2023-04-25T07:47:53;9.04;81.54
67275;DHT22;55463;52.324;5.122;2023-04-25T07:50:18;9.00;82.09
67275;DHT22;55463;52.324;5.122;2023-04-25T07:52:43;8.86;81.56
67275;DHT22;55463;52.324;5.122;2023-04-25T07:55:09;9.15;82.18
67275;DHT22;55463;52.324;5.122;2023-04-25T07:57:34;9.52;79.22
67275;DHT22;55463;52.324;5.122;2023-04-25T07:59:59;10.00;77.95
67275;DHT22;55463;52.324;5.122;2023-04-25T08:02:25;11.24;82.41
67275;DHT22;55463;52.324;5.122;2023-04-25T08:04:53;12.22;77.45
67275;DHT22;55463;52.324;5.122;2023-04-25T08:07:18;12.67;74.16
67275;DHT22;55463;52.324;5.122;2023-04-25T08:09:44;13.66;75.93
67275;DHT22;55463;52.324;5.122;2023-04-25T08:12:10;13.97;73.48
67275;DHT22;55463;52.324;5.122;2023-04-25T08:14:35;14.60;71.89
67275;DHT22;55463;52.324;5.122;2023-04-25T08:17:05;14.83;69.29
67275;DHT22;55463;52.324;5.122;2023-04-25T08:19:30;13.90;65.01
67275;DHT22;55463;52.324;5.122;2023-04-25T08:21:59;14.26;67.11
67275;DHT22;55463;52.324;5.122;2023-04-25T08:24:24;14.84;67.95
67275;DHT22;55463;52.324;5.122;2023-04-25T08:26:51;13.62;64.82
67275;DHT22;55463;52.324;5.122;2023-04-25T08:29:19;14.10;69.30
67275;DHT22;55463;52.324;5.122;2023-04-25T08:31:45;15.22;70.68
67275;DHT22;55463;52.324;5.122;2023-04-25T08:34:11;15.49;65.29
67275;DHT22;55463;52.324;5.122;2023-04-25T08:36:37;15.22;63.05
67275;DHT22;55463;52.324;5.122;2023-04-25T08:39:02;15.76;62.51
67275;DHT22;55463;52.324;5.122;2023-04-25T08:41:28;15.89;60.23
67275;DHT22;55463;52.324;5.122;2023-04-25T08:43:55;15.90;60.85
67275;DHT22;55463;52.324;5.122;2023-04-25T08:46:21;16.42;57.30
67275;DHT22;55463;52.324;5.122;2023-04-25T08:48:50;15.38;57.33
67275;DHT22;55463;52.324;5.122;2023-04-25T08:51:25;14.36;61.63
67275;DHT22;55463;52.324;5.122;2023-04-25T08:53:53;13.28;62.11
67275;DHT22;55463;52.324;5.122;2023-04-25T08:56:19;11.97;67.68
67275;DHT22;55463;52.324;5.122;2023-04-25T08:58:50;11.52;69.56
67275;DHT22;55463;52.324;5.122;2023-04-25T09:01:16;11.10;72.89
67275;DHT22;55463;52.324;5.122;2023-04-25T09:03:43;10.80;71.49
67275;DHT22;55463;52.324;5.122;2023-04-25T09:06:10;10.45;69.74
67275;DHT22;55463;52.324;5.122;2023-04-25T09:08:36;10.28;69.68
67275;DHT22;55463;52.324;5.122;2023-04-25T09:11:02;10.28;69.48
67275;DHT22;55463;52.324;5.122;2023-04-25T09:13:28;10.46;71.40
67275;DHT22;55463;52.324;5.122;2023-04-25T09:15:56;10.38;70.27
67275;DHT22;55463;52.324;5.122;2023-04-25T09:18:26;10.29;69.61
67275;DHT22;55463;52.324;5.122;2023-04-25T09:20:53;10.45;70.89
67275;DHT22;55463;52.324;5.122;2023-04-25T09:23:22;10.77;70.23
67275;DHT22;55463;52.324;5.122;2023-04-25T09:25:49;10.90;69.76
67275;DHT22;55463;52.324;5.122;2023-04-25T09:28:14;11.22;70.41
67275;DHT22;55463;52.324;5.122;2023-04-25T09:30:40;11.31;68.75
67275;DHT22;55463;52.324;5.122;2023-04-25T09:33:06;11.53;67.44
67275;DHT22;55463;52.324;5.122;2023-04-25T09:35:43;12.38;69.39
67275;DHT22;55463;52.324;5.122;2023-04-25T09:38:15;12.81;67.19
67275;DHT22;55463;52.324;5.122;2023-04-25T09:40:45;12.76;63.31
67275;DHT22;55463;52.324;5.122;2023-04-25T09:45:43;13.29;66.07
67275;DHT22;55463;52.324;5.122;2023-04-25T09:48:11;12.97;63.76
67275;DHT22;55463;52.324;5.122;2023-04-25T09:50:37;13.25;65.72
67275;DHT22;55463;52.324;5.122;2023-04-25T09:53:05;13.25;63.45
67275;DHT22;55463;52.324;5.122;2023-04-25T09:55:33;13.66;65.06
67275;DHT22;55463;52.324;5.122;2023-04-25T09:58:04;14.67;63.59
67275;DHT22;55463;52.324;5.122;2023-04-25T10:00:30;15.66;63.09
67275;DHT22;55463;52.324;5.122;2023-04-25T10:03:00;16.32;64.66
67275;DHT22;55463;52.324;5.122;2023-04-25T10:05:27;16.36;59.84
67275;DHT22;55463;52.324;5.122;2023-04-25T10:07:55;16.51;57.59
67275;DHT22;55463;52.324;5.122;2023-04-25T10:10:21;17.07;55.90
67275;DHT22;55463;52.324;5.122;2023-04-25T10:12:51;17.70;59.29
67275;DHT22;55463;52.324;5.122;2023-04-25T10:15:17;18.08;56.29
67275;DHT22;55463;52.324;5.122;2023-04-25T10:17:45;18.81;54.56
67275;DHT22;55463;52.324;5.122;2023-04-25T10:20:10;17.20;55.22
67275;DHT22;55463;52.324;5.122;2023-04-25T10:22:42;16.01;61.76
67275;DHT22;55463;52.324;5.122;2023-04-25T10:25:10;14.33;64.99
67275;DHT22;55463;52.324;5.122;2023-04-25T10:27:36;12.97;67.48
67275;DHT22;55463;52.324;5.122;2023-04-25T10:30:07;12.02;69.27
67275;DHT22;55463;52.324;5.122;2023-04-25T10:32:35;11.32;71.56
67275;DHT22;55463;52.324;5.122;2023-04-25T10:35:16;11.10;72.54
67275;DHT22;55463;52.324;5.122;2023-04-25T10:37:58;10.96;72.33
67275;DHT22;55463;52.324;5.122;2023-04-25T10:40:23;10.60;72.67
67275;DHT22;55463;52.324;5.122;2023-04-25T10:42:49;10.55;73.89
67275;DHT22;55463;52.324;5.122;2023-04-25T10:45:14;10.38;75.19
67275;DHT22;55463;52.324;5.122;2023-04-25T10:47:46;10.48;75.93
67275;DHT22;55463;52.324;5.122;2023-04-25T10:50:12;10.25;71.55
67275;DHT22;55463;52.324;5.122;2023-04-25T10:52:39;10.28;69.63
67275;DHT22;55463;52.324;5.122;2023-04-25T10:55:08;10.45;68.54
67275;DHT22;55463;52.324;5.122;2023-04-25T10:57:45;10.64;69.68
67275;DHT22;55463;52.324;5.122;2023-04-25T11:00:14;10.81;70.83
67275;DHT22;55463;52.324;5.122;2023-04-25T11:05:08;11.43;68.36
67275;DHT22;55463;52.324;5.122;2023-04-25T11:07:49;12.57;72.67
67275;DHT22;55463;52.324;5.122;2023-04-25T11:10:15;13.96;69.81
67275;DHT22;55463;52.324;5.122;2023-04-25T11:12:41;14.87;68.61
67275;DHT22;55463;52.324;5.122;2023-04-25T11:15:07;15.35;64.54
67275;DHT22;55463;52.324;5.122;2023-04-25T11:17:33;14.94;61.16
67275;DHT22;55463;52.324;5.122;2023-04-25T11:19:59;13.96;65.00
67275;DHT22;55463;52.324;5.122;2023-04-25T11:22:27;13.25;65.02
67275;DHT22;55463;52.324;5.122;2023-04-25T11:24:52;12.81;66.29
67275;DHT22;55463;52.324;5.122;2023-04-25T11:27:18;12.25;65.93
67275;DHT22;55463;52.324;5.122;2023-04-25T11:29:43;12.11;67.35
67275;DHT22;55463;52.324;5.122;2023-04-25T11:32:09;11.95;66.96
67275;DHT22;55463;52.324;5.122;2023-04-25T11:34:34;12.31;67.47
67275;DHT22;55463;52.324;5.122;2023-04-25T11:37:01;13.19;69.76
67275;DHT22;55463;52.324;5.122;2023-04-25T11:39:27;13.79;65.98
67275;DHT22;55463;52.324;5.122;2023-04-25T11:41:53;13.74;60.89
67275;DHT22;55463;52.324;5.122;2023-04-25T11:44:20;13.84;58.99
67275;DHT22;55463;52.324;5.122;2023-04-25T11:46:46;14.87;61.03
67275;DHT22;55463;52.324;5.122;2023-04-25T11:49:13;15.03;57.75
67275;DHT22;55463;52.324;5.122;2023-04-25T11:51:45;14.98;58.84
67275;DHT22;55463;52.324;5.122;2023-04-25T11:54:11;15.32;58.15
67275;DHT22;55463;52.324;5.122;2023-04-25T11:56:37;15.25;56.61
67275;DHT22;55463;52.324;5.122;2023-04-25T11:59:05;15.79;59.61
67275;DHT22;55463;52.324;5.122;2023-04-25T12:01:36;16.10;57.58
67275;DHT22;55463;52.324;5.122;2023-04-25T12:04:13;16.46;56.81
67275;DHT22;55463;52.324;5.122;2023-04-25T12:06:39;16.20;53.10
67275;DHT22;55463;52.324;5.122;2023-04-25T12:09:08;16.60;56.01
67275;DHT22;55463;52.324;5.122;2023-04-25T12:11:47;16.91;56.65
67275;DHT22;55463;52.324;5.122;2023-04-25T12:16:49;16.76;53.53
67275;DHT22;55463;52.324;5.122;2023-04-25T12:19:17;16.29;56.69
67275;DHT22;55463;52.324;5.122;2023-04-25T12:21:43;15.67;57.88
67275;DHT22;55463;52.324;5.122;2023-04-25T12:27:04;15.18;56.91
67275;DHT22;55463;52.324;5.122;2023-04-25T12:29:32;15.56;54.69
67275;DHT22;55463;52.324;5.122;2023-04-25T12:31:58;15.62;52.50
67275;DHT22;55463;52.324;5.122;2023-04-25T12:34:24;15.60;56.55
67275;DHT22;55463;52.324;5.122;2023-04-25T12:36:51;15.58;59.55
67275;DHT22;55463;52.324;5.122;2023-04-25T12:39:24;15.11;57.36
67275;DHT22;55463;52.324;5.122;2023-04-25T12:41:52;15.90;60.77
67275;DHT22;55463;52.324;5.122;2023-04-25T12:44:21;15.65;57.94
67275;DHT22;55463;52.324;5.122;2023-04-25T12:46:47;15.15;58.40
67275;DHT22;55463;52.324;5.122;2023-04-25T12:49:13;15.71;59.69
67275;DHT22;55463;52.324;5.122;2023-04-25T12:51:39;16.04;57.84
67275;DHT22;55463;52.324;5.122;2023-04-25T12:54:05;15.87;58.04
67275;DHT22;55463;52.324;5.122;2023-04-25T12:56:32;15.98;57.92
67275;DHT22;55463;52.324;5.122;2023-04-25T12:58:58;16.01;55.72
67275;DHT22;55463;52.324;5.122;2023-04-25T13:01:24;16.05;54.87
67275;DHT22;55463;52.324;5.122;2023-04-25T13:03:50;16.57;58.04
67275;DHT22;55463;52.324;5.122;2023-04-25T13:06:16;16.90;55.73
67275;DHT22;55463;52.324;5.122;2023-04-25T13:08:41;17.25;56.86
67275;DHT22;55463;52.324;5.122;2023-04-25T13:11:07;17.82;56.92
67275;DHT22;55463;52.324;5.122;2023-04-25T13:13:33;17.86;54.64
67275;DHT22;55463;52.324;5.122;2023-04-25T13:16:03;18.04;52.53
67275;DHT22;55463;52.324;5.122;2023-04-25T13:18:29;18.34;53.08
67275;DHT22;55463;52.324;5.122;2023-04-25T13:20:55;18.44;53.30
67275;DHT22;55463;52.324;5.122;2023-04-25T13:23:21;18.63;52.21
67275;DHT22;55463;52.324;5.122;2023-04-25T13:25:47;17.94;50.11
67275;DHT22;55463;52.324;5.122;2023-04-25T13:28:13;18.14;52.69
67275;DHT22;55463;52.324;5.122;2023-04-25T13:30:39;18.17;52.43
67275;DHT22;55463;52.324;5.122;2023-04-25T13:33:05;17.74;49.44
67275;DHT22;55463;52.324;5.122;2023-04-25T13:35:34;17.73;52.98
67275;DHT22;55463;52.324;5.122;2023-04-25T13:38:00;18.08;54.07
67275;DHT22;55463;52.324;5.122;2023-04-25T13:40:26;17.83;51.46
67275;DHT22;55463;52.324;5.122;2023-04-25T13:42:52;17.22;49.58
67275;DHT22;55463;52.324;5.122;2023-04-25T13:45:18;17.77;52.65
67275;DHT22;55463;52.324;5.122;2023-04-25T13:47:43;17.53;49.50
67275;DHT22;55463;52.324;5.122;2023-04-25T13:50:09;17.00;49.24
67275;DHT22;55463;52.324;5.122;2023-04-25T13:52:34;17.15;51.41
67275;DHT22;55463;52.324;5.122;2023-04-25T13:55:00;17.03;53.46
67275;DHT22;55463;52.324;5.122;2023-04-25T13:57:28;17.25;53.28
67275;DHT22;55463;52.324;5.122;2023-04-25T13:59:53;16.51;51.44
67275;DHT22;55463;52.324;5.122;2023-04-25T14:02:21;16.94;52.96
67275;DHT22;55463;52.324;5.122;2023-04-25T14:04:46;16.87;49.16
67275;DHT22;55463;52.324;5.122;2023-04-25T14:07:12;17.00;51.28
67275;DHT22;55463;52.324;5.122;2023-04-25T14:09:37;16.97;49.04
67275;DHT22;55463;52.324;5.122;2023-04-25T14:12:03;16.77;51.36
67275;DHT22;55463;52.324;5.122;2023-04-25T14:14:28;16.51;52.17
67275;DHT22;55463;52.324;5.122;2023-04-25T14:16:54;15.79;51.84
67275;DHT22;55463;52.324;5.122;2023-04-25T14:19:20;15.84;54.77
67275;DHT22;55463;52.324;5.122;2023-04-25T14:21:45;15.83;53.47
67275;DHT22;55463;52.324;5.122;2023-04-25T14:24:11;16.05;54.07
67275;DHT22;55463;52.324;5.122;2023-04-25T14:26:37;16.38;53.76
67275;DHT22;55463;52.324;5.122;2023-04-25T14:29:04;15.91;52.05
67275;DHT22;55463;52.324;5.122;2023-04-25T14:31:30;15.60;54.73
67275;DHT22;55463;52.324;5.122;2023-04-25T14:33:56;15.28;55.45
67275;DHT22;55463;52.324;5.122;2023-04-25T14:36:21;14.58;57.01
67275;DHT22;55463;52.324;5.122;2023-04-25T14:38:47;14.26;58.98
67275;DHT22;55463;52.324;5.122;2023-04-25T14:41:12;14.32;59.74
67275;DHT22;55463;52.324;5.122;2023-04-25T14:43:37;13.97;58.87
67275;DHT22;55463;52.324;5.122;2023-04-25T14:46:05;13.76;58.91
67275;DHT22;55463;52.324;5.122;2023-04-25T14:48:31;13.59;59.55
67275;DHT22;55463;52.324;5.122;2023-04-25T14:50:57;13.26;58.38
67275;DHT22;55463;52.324;5.122;2023-04-25T14:53:23;13.24;59.59
67275;DHT22;55463;52.324;5.122;2023-04-25T14:55:48;13.18;59.99
67275;DHT22;55463;52.324;5.122;2023-04-25T14:58:14;13.31;60.52
67275;DHT22;55463;52.324;5.122;2023-04-25T15:00:39;13.90;59.50
67275;DHT22;55463;52.324;5.122;2023-04-25T15:03:05;14.05;59.29
67275;DHT22;55463;52.324;5.122;2023-04-25T15:05:32;14.13;59.40
67275;DHT22;55463;52.324;5.122;2023-04-25T15:07:58;13.67;59.97
67275;DHT22;55463;52.324;5.122;2023-04-25T15:10:23;13.08;57.54
67275;DHT22;55463;52.324;5.122;2023-04-25T15:12:49;13.04;61.21
67275;DHT22;55463;52.324;5.122;2023-04-25T15:15:15;12.69;58.96
67275;DHT22;55463;52.324;5.122;2023-04-25T15:17:41;12.81;60.76
67275;DHT22;55463;52.324;5.122;2023-04-25T15:20:08;12.62;61.67
67275;DHT22;55463;52.324;5.122;2023-04-25T15:22:42;12.93;61.74
67275;DHT22;55463;52.324;5.122;2023-04-25T15:25:08;13.10;60.56
67275;DHT22;55463;52.324;5.122;2023-04-25T15:27:34;13.19;59.42
67275;DHT22;55463;52.324;5.122;2023-04-25T15:30:05;13.34;57.32
67275;DHT22;55463;52.324;5.122;2023-04-25T15:32:30;13.52;57.96
67275;DHT22;55463;52.324;5.122;2023-04-25T15:34:56;13.71;58.76
67275;DHT22;55463;52.324;5.122;2023-04-25T15:37:24;13.34;58.80
67275;DHT22;55463;52.324;5.122;2023-04-25T15:40:00;13.00;59.51
67275;DHT22;55463;52.324;5.122;2023-04-25T15:42:29;12.81;60.16